Time;durP1;ratioP1;P1;durP2;ratioP2;P2;SDS_P1;SDS_P2;PMS_P1;PMS_P2;Temp;Humidity;BMP_temperature;BMP_pressure;BME280_temperature;BME280_humidity;BME280_pressure;Samples;Min_cycle;Max_cycle;Signal;HPM_P1;HPM_P2
2023/12/12 00:01:35;;;;;;;0.00;0.00;;;9.20;99.90;;;;;;5101662;28;20587;-71
2023/12/12 00:04:00;;;;;;;0.00;0.00;;;9.20;99.90;;;;;;5109857;28;20186;-71
2023/12/12 00:06:29;;;;;;;0.00;0.00;;;9.10;99.90;;;;;;5111784;28;20183;-71
2023/12/12 00:08:57;;;;;;;0.08;0.08;;;9.10;99.90;;;;;;5100465;28;20646;-70
2023/12/12 00:11:23;;;;;;;0.00;0.00;;;9.20;99.90;;;;;;5104487;28;20184;-70
2023/12/12 00:13:48;;;;;;;0.00;0.00;;;9.20;99.90;;;;;;5100977;28;20183;-72
2023/12/12 00:16:14;;;;;;;0.00;0.00;;;9.20;99.90;;;;;;5109781;28;20218;-71
2023/12/12 00:18:39;;;;;;;0.00;0.00;;;9.20;99.90;;;;;;5093200;28;20505;-71
2023/12/12 00:21:05;;;;;;;0.00;0.00;;;9.20;99.90;;;;;;5100608;28;20278;-71
2023/12/12 00:23:31;;;;;;;0.00;0.00;;;9.20;99.90;;;;;;5110267;28;20168;-71
2023/12/12 00:25:57;;;;;;;0.00;0.00;;;9.20;99.90;;;;;;5113178;28;20636;-71
2023/12/12 00:28:23;;;;;;;0.10;0.10;;;9.20;99.90;;;;;;5108720;28;20176;-71
2023/12/12 00:30:48;;;;;;;0.00;0.00;;;9.20;99.90;;;;;;5109257;28;20194;-70
2023/12/12 00:33:14;;;;;;;0.00;0.00;;;9.10;99.90;;;;;;5094552;28;20262;-70
2023/12/12 00:35:40;;;;;;;0.00;0.00;;;9.10;99.90;;;;;;5097054;28;20263;-70
2023/12/12 00:38:05;;;;;;;0.00;0.00;;;9.10;99.90;;;;;;5113126;28;20601;-70
2023/12/12 00:40:32;;;;;;;0.00;0.00;;;9.20;99.90;;;;;;5112624;28;20600;-70
2023/12/12 00:42:57;;;;;;;0.10;0.10;;;9.20;99.90;;;;;;5113262;28;20208;-70
2023/12/12 00:45:23;;;;;;;0.00;0.00;;;9.20;99.90;;;;;;5111833;28;20215;-71
2023/12/12 00:47:49;;;;;;;0.00;0.00;;;9.10;99.90;;;;;;5105240;28;20175;-70
2023/12/12 00:50:15;;;;;;;0.00;0.00;;;9.20;99.90;;;;;;5112878;28;20183;-71
2023/12/12 00:52:41;;;;;;;0.00;0.00;;;9.20;99.90;;;;;;5095895;28;21239;-71
2023/12/12 00:55:07;;;;;;;0.15;0.08;;;9.10;99.90;;;;;;5095184;28;20732;-71
2023/12/12 00:57:33;;;;;;;0.00;0.00;;;9.10;99.90;;;;;;5105890;28;20219;-71
2023/12/12 00:59:58;;;;;;;0.00;0.00;;;9.10;99.90;;;;;;5098426;28;20217;-70
2023/12/12 01:02:24;;;;;;;0.00;0.00;;;9.10;99.90;;;;;;5106239;28;20192;-70
2023/12/12 01:04:50;;;;;;;0.00;0.00;;;9.10;99.90;;;;;;5093666;28;20168;-69
2023/12/12 01:07:16;;;;;;;0.00;0.00;;;9.10;99.90;;;;;;5100442;28;20550;-70
2023/12/12 01:09:41;;;;;;;0.00;0.00;;;9.10;99.90;;;;;;5102721;28;20195;-70
2023/12/12 01:12:07;;;;;;;0.00;0.00;;;9.10;99.90;;;;;;5101736;28;20207;-71
2023/12/12 01:14:33;;;;;;;0.00;0.00;;;9.10;99.90;;;;;;5109887;28;20714;-70
2023/12/12 01:16:58;;;;;;;0.00;0.00;;;9.30;99.90;;;;;;5097559;28;20677;-70
2023/12/12 01:19:24;;;;;;;0.00;0.00;;;9.10;99.90;;;;;;5105229;28;20229;-70
2023/12/12 01:21:50;;;;;;;0.00;0.00;;;9.10;99.90;;;;;;5104431;28;20224;-69
2023/12/12 01:24:15;;;;;;;0.00;0.00;;;9.10;99.90;;;;;;5098095;28;20809;-71
2023/12/12 01:26:41;;;;;;;0.00;0.00;;;9.10;99.90;;;;;;5110562;28;20175;-71
2023/12/12 01:29:06;;;;;;;0.00;0.00;;;9.10;99.90;;;;;;5110992;28;20438;-70
2023/12/12 01:31:32;;;;;;;0.00;0.00;;;9.20;99.90;;;;;;5109236;28;20176;-71
2023/12/12 01:33:57;;;;;;;0.00;0.00;;;9.20;99.90;;;;;;5105155;28;20183;-71
2023/12/12 01:36:23;;;;;;;0.00;0.00;;;9.20;99.90;;;;;;5097809;28;20281;-71
2023/12/12 01:38:48;;;;;;;0.20;0.20;;;9.10;99.90;;;;;;5104849;28;20195;-71
2023/12/12 01:41:14;;;;;;;0.00;0.00;;;9.10;99.90;;;;;;5106634;27;20710;-71
2023/12/12 01:43:40;;;;;;;0.00;0.00;;;9.00;99.90;;;;;;5092993;28;20271;-70
2023/12/12 01:46:07;;;;;;;0.00;0.00;;;9.00;99.90;;;;;;5105661;28;20180;-69
2023/12/12 01:48:33;;;;;;;0.03;0.03;;;9.00;99.90;;;;;;5110394;28;20282;-69
2023/12/12 01:51:00;;;;;;;1.38;0.73;;;9.00;99.90;;;;;;5094831;28;20691;-70
2023/12/12 01:53:30;;;;;;;0.00;0.00;;;9.00;99.90;;;;;;5105924;28;20229;-70
2023/12/12 01:55:57;;;;;;;0.00;0.00;;;9.00;99.90;;;;;;5101445;28;20215;-70
2023/12/12 01:58:25;;;;;;;0.00;0.00;;;9.00;99.90;;;;;;5101472;28;20600;-70
2023/12/12 02:00:51;;;;;;;0.00;0.00;;;9.00;99.90;;;;;;5104109;28;20199;-70
2023/12/12 02:03:16;;;;;;;0.00;0.00;;;9.00;99.90;;;;;;5099062;28;20194;-71
2023/12/12 02:05:45;;;;;;;0.00;0.00;;;9.00;99.90;;;;;;5102056;28;20646;-71
2023/12/12 02:08:11;;;;;;;0.00;0.00;;;9.00;99.90;;;;;;5109676;28;20187;-70
2023/12/12 02:10:36;;;;;;;0.00;0.00;;;9.00;99.90;;;;;;5101250;28;20574;-71
2023/12/12 02:13:02;;;;;;;0.00;0.00;;;9.00;99.90;;;;;;5101733;28;20215;-71
2023/12/12 02:15:27;;;;;;;0.00;0.00;;;9.00;99.90;;;;;;5099429;28;20180;-71
2023/12/12 02:17:53;;;;;;;0.00;0.00;;;9.00;99.90;;;;;;5108079;28;20324;-71
2023/12/12 02:20:18;;;;;;;0.00;0.00;;;9.00;99.90;;;;;;5108151;28;20183;-71
2023/12/12 02:22:44;;;;;;;0.90;0.70;;;9.00;99.90;;;;;;5100171;28;20666;-71
2023/12/12 02:25:10;;;;;;;0.00;0.00;;;9.00;99.90;;;;;;5110214;28;20199;-71
2023/12/12 02:27:37;;;;;;;0.15;0.15;;;9.00;99.90;;;;;;5111346;28;20654;-71
2023/12/12 02:30:06;;;;;;;0.00;0.00;;;9.00;99.90;;;;;;5093722;28;20184;-71
2023/12/12 02:32:31;;;;;;;0.00;0.00;;;9.00;99.90;;;;;;5095845;28;20643;-72
2023/12/12 02:34:57;;;;;;;0.00;0.00;;;9.00;99.90;;;;;;5097740;28;20182;-70
2023/12/12 02:37:22;;;;;;;0.00;0.00;;;8.90;99.90;;;;;;5080995;28;20227;-71
2023/12/12 02:39:48;;;;;;;0.00;0.00;;;8.90;99.90;;;;;;5104041;28;20168;-71
2023/12/12 02:42:13;;;;;;;0.00;0.00;;;8.90;99.90;;;;;;5110916;28;20646;-71
2023/12/12 02:44:39;;;;;;;0.00;0.00;;;9.00;99.90;;;;;;5110061;28;20205;-71
2023/12/12 02:47:04;;;;;;;0.00;0.00;;;9.00;99.90;;;;;;5109409;28;20207;-72
2023/12/12 02:49:30;;;;;;;0.00;0.00;;;9.00;99.90;;;;;;5104270;28;20176;-71
2023/12/12 02:51:56;;;;;;;0.10;0.10;;;9.00;99.90;;;;;;5092650;28;20639;-71
2023/12/12 02:54:21;;;;;;;0.00;0.00;;;9.00;99.90;;;;;;5092861;28;20297;-71
2023/12/12 02:56:47;;;;;;;0.00;0.00;;;9.00;99.90;;;;;;5097679;28;20204;-70
2023/12/12 02:59:12;;;;;;;0.00;0.00;;;9.00;99.90;;;;;;5110477;28;20193;-69
2023/12/12 03:01:38;;;;;;;0.30;0.20;;;9.00;99.90;;;;;;5102336;28;20180;-71
2023/12/12 03:04:03;;;;;;;0.00;0.00;;;9.00;99.90;;;;;;5101941;28;20180;-71
2023/12/12 03:06:29;;;;;;;0.00;0.00;;;8.90;99.90;;;;;;5106726;28;20176;-71
2023/12/12 03:08:54;;;;;;;0.00;0.00;;;8.90;99.90;;;;;;5103858;28;20183;-71
2023/12/12 03:11:20;;;;;;;0.00;0.00;;;8.90;99.90;;;;;;5104185;28;20535;-71
2023/12/12 03:13:45;;;;;;;0.00;0.00;;;8.90;99.90;;;;;;5100122;28;20693;-72
2023/12/12 03:16:11;;;;;;;0.00;0.00;;;8.90;99.90;;;;;;5098776;28;20741;-71
2023/12/12 03:18:36;;;;;;;0.00;0.00;;;8.90;99.90;;;;;;5104703;28;20187;-71
2023/12/12 03:21:02;;;;;;;0.00;0.00;;;8.80;99.90;;;;;;5093930;28;20207;-72
2023/12/12 03:23:28;;;;;;;0.00;0.00;;;8.80;99.90;;;;;;5110699;28;20214;-72
2023/12/12 03:25:53;;;;;;;0.00;0.00;;;8.80;99.90;;;;;;5101370;28;20659;-71
2023/12/12 03:28:19;;;;;;;0.00;0.00;;;8.80;99.90;;;;;;5104528;28;20194;-71
2023/12/12 03:30:45;;;;;;;0.00;0.00;;;8.80;99.90;;;;;;5094025;28;20173;-72
2023/12/12 03:33:10;;;;;;;0.43;0.10;;;8.80;99.90;;;;;;5106124;28;20176;-72
2023/12/12 03:35:36;;;;;;;0.10;0.10;;;8.80;99.90;;;;;;5097930;28;20542;-72
2023/12/12 03:38:01;;;;;;;0.00;0.00;;;8.80;99.90;;;;;;5100284;28;20220;-72
2023/12/12 03:40:27;;;;;;;0.00;0.00;;;8.80;99.90;;;;;;5091307;28;20176;-71
2023/12/12 03:42:52;;;;;;;0.00;0.00;;;8.80;99.90;;;;;;5107503;28;20190;-71
2023/12/12 03:45:18;;;;;;;0.00;0.00;;;8.80;99.90;;;;;;5094536;28;20191;-72
2023/12/12 03:47:44;;;;;;;0.00;0.00;;;8.80;99.90;;;;;;5102232;28;20187;-72
2023/12/12 03:50:09;;;;;;;0.00;0.00;;;8.80;99.90;;;;;;5101650;28;20178;-72
2023/12/12 03:52:35;;;;;;;0.00;0.00;;;8.80;99.90;;;;;;5105105;28;20176;-71
2023/12/12 03:55:00;;;;;;;0.17;0.17;;;8.80;99.90;;;;;;5108714;28;20219;-71
2023/12/12 03:57:26;;;;;;;0.00;0.00;;;8.90;99.90;;;;;;5089136;28;20204;-71
2023/12/12 03:59:51;;;;;;;0.10;0.10;;;8.90;99.90;;;;;;5102000;28;20678;-71
2023/12/12 04:02:17;;;;;;;0.00;0.00;;;8.90;99.90;;;;;;5098787;28;20200;-72
2023/12/12 04:04:43;;;;;;;0.20;0.20;;;8.90;99.90;;;;;;5088810;28;20517;-71
2023/12/12 04:07:08;;;;;;;0.00;0.00;;;9.00;99.90;;;;;;5106899;28;20191;-71
2023/12/12 04:09:34;;;;;;;0.00;0.00;;;9.00;99.90;;;;;;5090625;28;20188;-71
2023/12/12 04:11:59;;;;;;;0.00;0.00;;;9.00;99.90;;;;;;5092644;28;20333;-71
2023/12/12 04:14:25;;;;;;;0.00;0.00;;;9.00;99.90;;;;;;5100907;28;20635;-72
2023/12/12 04:16:50;;;;;;;0.00;0.00;;;9.00;99.90;;;;;;5104039;28;20242;-72
2023/12/12 04:19:16;;;;;;;0.20;0.13;;;9.00;99.90;;;;;;5107820;28;20225;-72
2023/12/12 04:21:42;;;;;;;0.00;0.00;;;9.00;99.90;;;;;;5100062;28;20186;-70
2023/12/12 04:24:08;;;;;;;0.00;0.00;;;9.00;99.90;;;;;;5101976;28;20661;-71
2023/12/12 04:26:33;;;;;;;0.00;0.00;;;9.10;99.90;;;;;;5102812;28;20180;-71
2023/12/12 04:28:59;;;;;;;0.00;0.00;;;9.00;99.90;;;;;;5097455;28;20176;-71
2023/12/12 04:31:25;;;;;;;0.05;0.05;;;9.10;99.90;;;;;;5100768;28;20260;-71
2023/12/12 04:33:50;;;;;;;0.00;0.00;;;9.00;99.90;;;;;;5096576;28;20207;-70
2023/12/12 04:36:16;;;;;;;0.00;0.00;;;9.00;99.90;;;;;;5094472;28;20288;-71
2023/12/12 04:38:42;;;;;;;0.00;0.00;;;9.00;99.90;;;;;;5101351;28;20191;-71
2023/12/12 04:41:08;;;;;;;0.00;0.00;;;9.00;99.90;;;;;;5105064;28;20171;-71
2023/12/12 04:43:34;;;;;;;0.00;0.00;;;9.00;99.90;;;;;;5113150;28;20167;-70
2023/12/12 04:46:00;;;;;;;0.00;0.00;;;9.00;99.90;;;;;;5114688;28;20172;-70
2023/12/12 04:48:26;;;;;;;0.57;0.20;;;8.90;99.90;;;;;;5114182;28;20225;-71
2023/12/12 04:50:52;;;;;;;0.00;0.00;;;8.90;99.90;;;;;;5106129;28;20191;-66
2023/12/12 04:53:18;;;;;;;0.00;0.00;;;8.90;99.90;;;;;;5096235;28;20178;-70
2023/12/12 04:55:43;;;;;;;0.00;0.00;;;8.80;99.90;;;;;;5092998;28;20187;-71
2023/12/12 04:58:09;;;;;;;0.00;0.00;;;8.80;99.90;;;;;;5094627;28;20184;-70
2023/12/12 05:00:34;;;;;;;0.00;0.00;;;8.80;99.90;;;;;;5094732;28;20172;-66
2023/12/12 05:03:00;;;;;;;0.00;0.00;;;8.80;99.90;;;;;;5094212;28;20530;-67
2023/12/12 05:05:25;;;;;;;0.00;0.00;;;8.70;99.90;;;;;;5095993;28;20528;-66
2023/12/12 05:07:51;;;;;;;0.00;0.00;;;8.70;99.90;;;;;;5094364;28;20588;-68
2023/12/12 05:10:17;;;;;;;0.00;0.00;;;8.70;99.90;;;;;;5094071;28;20187;-68
2023/12/12 05:12:42;;;;;;;0.00;0.00;;;8.60;99.90;;;;;;5105904;28;20172;-67
2023/12/12 05:15:08;;;;;;;0.00;0.00;;;8.60;99.90;;;;;;5094779;28;20271;-70
2023/12/12 05:17:35;;;;;;;0.00;0.00;;;8.60;99.90;;;;;;5108202;28;20338;-68
2023/12/12 05:20:00;;;;;;;0.00;0.00;;;8.60;99.90;;;;;;5107434;28;20199;-69
2023/12/12 05:22:26;;;;;;;0.00;0.00;;;8.60;99.90;;;;;;5110011;28;20647;-70
2023/12/12 05:24:52;;;;;;;0.00;0.00;;;8.50;99.90;;;;;;5113792;28;20172;-68
2023/12/12 05:27:17;;;;;;;0.00;0.00;;;8.50;99.90;;;;;;5100826;28;20180;-68
2023/12/12 05:29:43;;;;;;;0.08;0.08;;;8.50;99.90;;;;;;5113864;28;20178;-68
2023/12/12 05:32:08;;;;;;;0.00;0.00;;;8.50;99.90;;;;;;5104722;28;20570;-68
2023/12/12 05:34:34;;;;;;;0.10;0.10;;;8.50;99.90;;;;;;5108070;28;20254;-68
2023/12/12 05:37:00;;;;;;;0.17;0.17;;;8.50;99.90;;;;;;5112483;28;20231;-68
2023/12/12 05:39:26;;;;;;;0.00;0.00;;;8.50;99.90;;;;;;5092489;28;20237;-68
2023/12/12 05:41:51;;;;;;;0.00;0.00;;;8.50;99.90;;;;;;5103969;28;20192;-68
2023/12/12 05:44:17;;;;;;;0.00;0.00;;;8.40;99.90;;;;;;5092077;28;20208;-68
2023/12/12 05:46:42;;;;;;;0.00;0.00;;;8.40;99.90;;;;;;5105993;28;20262;-68
2023/12/12 05:49:09;;;;;;;0.03;0.03;;;8.40;99.90;;;;;;5103153;28;20176;-68
2023/12/12 05:51:37;;;;;;;0.00;0.00;;;8.40;99.90;;;;;;5093297;28;20522;-69
2023/12/12 05:54:03;;;;;;;0.00;0.00;;;8.40;99.90;;;;;;5104103;28;20230;-68
2023/12/12 05:56:29;;;;;;;0.00;0.00;;;8.40;99.90;;;;;;5093048;28;20291;-68
2023/12/12 05:58:54;;;;;;;0.00;0.00;;;8.40;99.90;;;;;;5091738;28;20168;-68
2023/12/12 06:01:21;;;;;;;0.00;0.00;;;8.40;99.90;;;;;;5093021;28;20180;-68
2023/12/12 06:03:46;;;;;;;0.00;0.00;;;8.40;99.90;;;;;;5096853;28;20172;-68
2023/12/12 06:06:12;;;;;;;0.00;0.00;;;8.40;99.90;;;;;;5113260;28;20174;-68
2023/12/12 06:08:38;;;;;;;0.00;0.00;;;8.40;99.90;;;;;;5101349;28;20267;-68
2023/12/12 06:11:03;;;;;;;0.00;0.00;;;8.40;99.90;;;;;;5103899;28;20259;-68
2023/12/12 06:13:29;;;;;;;0.00;0.00;;;8.40;99.90;;;;;;5092960;28;20184;-68
2023/12/12 06:15:56;;;;;;;0.30;0.30;;;8.40;99.90;;;;;;5102611;28;20235;-68
2023/12/12 06:18:23;;;;;;;0.00;0.00;;;8.40;99.90;;;;;;5111436;28;20198;-67
2023/12/12 06:20:48;;;;;;;0.22;0.20;;;8.40;99.90;;;;;;5113158;28;20195;-69
2023/12/12 06:23:14;;;;;;;0.00;0.00;;;8.50;99.90;;;;;;5111513;28;20229;-69
2023/12/12 06:25:39;;;;;;;0.00;0.00;;;8.50;99.90;;;;;;5112946;28;20640;-70
2023/12/12 06:28:05;;;;;;;0.00;0.00;;;8.50;99.90;;;;;;5112780;28;20186;-69
2023/12/12 06:30:30;;;;;;;0.00;0.00;;;8.50;99.90;;;;;;5108453;27;20171;-69
2023/12/12 06:32:56;;;;;;;0.00;0.00;;;8.50;99.90;;;;;;5096175;28;20184;-69
2023/12/12 06:35:23;;;;;;;0.00;0.00;;;8.50;99.90;;;;;;5106936;28;20228;-69
2023/12/12 06:37:49;;;;;;;0.00;0.00;;;8.50;99.90;;;;;;5091967;28;20763;-67
2023/12/12 06:40:14;;;;;;;0.05;0.05;;;8.50;99.90;;;;;;5096297;28;20271;-68
2023/12/12 06:42:43;;;;;;;0.00;0.00;;;8.50;99.90;;;;;;5110514;28;20171;-68
2023/12/12 06:45:10;;;;;;;0.00;0.00;;;8.50;99.90;;;;;;5112552;28;20583;-68
2023/12/12 06:47:36;;;;;;;0.00;0.00;;;8.50;99.90;;;;;;5100362;28;20215;-68
2023/12/12 06:50:03;;;;;;;0.00;0.00;;;8.50;99.90;;;;;;5111336;28;20171;-68
2023/12/12 06:52:28;;;;;;;0.17;0.17;;;8.60;99.90;;;;;;5106715;28;20224;-67
2023/12/12 06:54:54;;;;;;;0.00;0.00;;;8.60;99.90;;;;;;5091501;28;20255;-67
2023/12/12 06:57:19;;;;;;;0.00;0.00;;;8.60;99.90;;;;;;5092024;28;20805;-69
2023/12/12 06:59:45;;;;;;;0.00;0.00;;;8.50;99.90;;;;;;5090637;28;20205;-67
2023/12/12 07:02:11;;;;;;;0.00;0.00;;;8.60;99.90;;;;;;5091880;28;20180;-69
2023/12/12 07:04:36;;;;;;;0.00;0.00;;;8.60;99.90;;;;;;5097186;28;20163;-69
2023/12/12 07:07:02;;;;;;;0.00;0.00;;;8.60;99.90;;;;;;5112164;28;20191;-69
2023/12/12 07:09:28;;;;;;;0.13;0.13;;;8.60;99.90;;;;;;5093141;28;20643;-69
2023/12/12 07:11:53;;;;;;;0.10;0.10;;;8.60;99.90;;;;;;5091727;28;20263;-68
2023/12/12 07:14:19;;;;;;;0.32;0.32;;;8.60;99.90;;;;;;5093632;28;20266;-68
2023/12/12 07:16:44;;;;;;;0.52;0.52;;;8.60;99.90;;;;;;5100328;28;20203;-68
2023/12/12 07:19:10;;;;;;;0.00;0.00;;;8.60;99.90;;;;;;5093066;28;20550;-69
2023/12/12 07:21:41;;;;;;;0.05;0.05;;;8.60;99.90;;;;;;5091518;28;20239;-67
2023/12/12 07:24:10;;;;;;;0.00;0.00;;;8.60;99.90;;;;;;5092472;28;20176;-69
2023/12/12 07:26:35;;;;;;;0.00;0.00;;;8.60;99.90;;;;;;5091484;28;20180;-69
2023/12/12 07:29:01;;;;;;;0.00;0.00;;;8.60;99.90;;;;;;5091437;28;20179;-69
2023/12/12 07:31:26;;;;;;;0.00;0.00;;;8.60;99.90;;;;;;5106575;28;20184;-69
2023/12/12 07:33:52;;;;;;;0.00;0.00;;;8.60;99.90;;;;;;5096472;28;20279;-69
2023/12/12 07:36:17;;;;;;;0.00;0.00;;;8.60;99.90;;;;;;5098249;28;20238;-69
2023/12/12 07:38:43;;;;;;;0.00;0.00;;;8.60;99.90;;;;;;5110318;28;20190;-69
2023/12/12 07:41:10;;;;;;;0.00;0.00;;;8.70;99.90;;;;;;5111827;28;20189;-70
2023/12/12 07:43:36;;;;;;;0.00;0.00;;;8.70;99.90;;;;;;5111662;28;20167;-70
2023/12/12 07:46:02;;;;;;;0.00;0.00;;;8.70;99.90;;;;;;5110037;28;20533;-70
2023/12/12 07:48:27;;;;;;;0.00;0.00;;;8.80;99.90;;;;;;5111830;28;20175;-71
2023/12/12 07:50:53;;;;;;;0.00;0.00;;;8.80;99.90;;;;;;5111408;28;20659;-70
2023/12/12 07:53:18;;;;;;;0.03;0.03;;;8.80;99.90;;;;;;5107398;28;20176;-70
2023/12/12 07:55:44;;;;;;;0.00;0.00;;;8.80;99.90;;;;;;5099415;28;20180;-71
2023/12/12 07:58:09;;;;;;;0.00;0.00;;;8.90;99.90;;;;;;5111592;28;20654;-70
2023/12/12 08:00:35;;;;;;;0.00;0.00;;;8.90;99.90;;;;;;5111415;28;20541;-70
2023/12/12 08:03:01;;;;;;;0.00;0.00;;;8.90;99.90;;;;;;5105889;28;20233;-71
2023/12/12 08:05:27;;;;;;;0.00;0.00;;;9.00;99.90;;;;;;5099120;28;20172;-71
2023/12/12 08:07:52;;;;;;;0.00;0.00;;;9.00;99.90;;;;;;5108301;28;20582;-70
2023/12/12 08:10:18;;;;;;;0.13;0.13;;;9.00;99.90;;;;;;5094798;28;20577;-70
2023/12/12 08:12:43;;;;;;;0.00;0.00;;;9.00;99.90;;;;;;5093665;28;20176;-70
2023/12/12 08:15:09;;;;;;;0.00;0.00;;;9.10;99.90;;;;;;5094903;28;20199;-70
2023/12/12 08:17:35;;;;;;;0.10;0.10;;;9.10;99.90;;;;;;5095141;28;20620;-74
2023/12/12 08:20:00;;;;;;;0.00;0.00;;;9.10;99.90;;;;;;5095335;28;20191;-75
2023/12/12 08:22:26;;;;;;;0.00;0.00;;;9.20;99.90;;;;;;5095252;28;20221;-76
2023/12/12 08:24:54;;;;;;;0.15;0.15;;;9.30;99.90;;;;;;5093855;28;20175;-75
2023/12/12 08:27:20;;;;;;;0.00;0.00;;;9.30;99.90;;;;;;5095113;28;20233;-76
2023/12/12 08:29:47;;;;;;;0.00;0.00;;;9.40;99.90;;;;;;5095128;28;20168;-76
2023/12/12 08:32:12;;;;;;;0.00;0.00;;;9.40;99.90;;;;;;5095017;28;20252;-76
2023/12/12 08:34:38;;;;;;;0.00;0.00;;;9.40;99.90;;;;;;5095057;28;20221;-76
2023/12/12 08:37:04;;;;;;;0.00;0.00;;;9.40;99.90;;;;;;5097626;28;20223;-76
2023/12/12 08:39:31;;;;;;;0.00;0.00;;;9.50;99.90;;;;;;5099525;28;20172;-76
2023/12/12 08:41:57;;;;;;;0.00;0.00;;;9.50;99.90;;;;;;5104319;28;20241;-75
2023/12/12 08:44:23;;;;;;;0.00;0.00;;;9.50;99.90;;;;;;5113318;27;20516;-76
2023/12/12 08:46:50;;;;;;;0.00;0.00;;;9.60;99.90;;;;;;5111905;28;20235;-75
2023/12/12 08:49:18;;;;;;;0.00;0.00;;;9.70;99.90;;;;;;5114699;28;20175;-77
2023/12/12 08:51:44;;;;;;;0.00;0.00;;;9.80;99.90;;;;;;5114578;28;20168;-73
2023/12/12 08:54:09;;;;;;;0.00;0.00;;;9.80;99.90;;;;;;5114581;28;20167;-75
2023/12/12 08:56:36;;;;;;;0.00;0.00;;;9.90;99.90;;;;;;5114508;28;20738;-76
2023/12/12 08:59:02;;;;;;;0.00;0.00;;;10.00;99.90;;;;;;5112814;28;20192;-76
2023/12/12 09:01:28;;;;;;;0.00;0.00;;;10.10;99.90;;;;;;5114713;27;20175;-72
2023/12/12 09:03:54;;;;;;;0.00;0.00;;;10.20;99.90;;;;;;5114556;28;20179;-75
2023/12/12 09:06:20;;;;;;;0.00;0.00;;;10.20;99.90;;;;;;5114533;28;20208;-76
2023/12/12 09:08:46;;;;;;;0.00;0.00;;;10.30;99.90;;;;;;5113695;28;20626;-75
2023/12/12 09:11:12;;;;;;;0.00;0.00;;;10.30;99.90;;;;;;5105777;28;20184;-76
2023/12/12 09:13:40;;;;;;;0.00;0.00;;;10.40;99.90;;;;;;5094301;28;20531;-75
2023/12/12 09:16:06;;;;;;;0.00;0.00;;;10.30;99.90;;;;;;5103751;28;20195;-75
2023/12/12 09:18:31;;;;;;;0.00;0.00;;;10.20;99.90;;;;;;5114087;28;20262;-76
2023/12/12 09:20:57;;;;;;;0.17;0.17;;;10.10;99.90;;;;;;5114154;28;20179;-75
2023/12/12 09:23:22;;;;;;;0.00;0.00;;;10.10;99.90;;;;;;5112637;28;20179;-76
2023/12/12 09:25:49;;;;;;;0.00;0.00;;;10.10;99.90;;;;;;5114171;28;20255;-75
2023/12/12 09:28:14;;;;;;;0.00;0.00;;;10.00;99.90;;;;;;5104078;28;20237;-76
2023/12/12 09:30:40;;;;;;;0.00;0.00;;;10.00;99.90;;;;;;5093570;28;20565;-75
2023/12/12 09:33:05;;;;;;;0.10;0.10;;;10.10;99.90;;;;;;5094849;28;20274;-75
2023/12/12 09:35:31;;;;;;;0.00;0.00;;;10.10;99.90;;;;;;5092368;28;20260;-76
2023/12/12 09:37:56;;;;;;;0.00;0.00;;;10.00;99.90;;;;;;5093303;28;20235;-75
2023/12/12 09:40:22;;;;;;;0.00;0.00;;;10.00;99.90;;;;;;5093439;28;20176;-75
2023/12/12 09:42:48;;;;;;;0.08;0.08;;;10.10;99.90;;;;;;5093626;28;20214;-75
2023/12/12 09:45:15;;;;;;;0.00;0.00;;;10.00;99.90;;;;;;5091748;28;20180;-75
2023/12/12 09:47:44;;;;;;;0.00;0.00;;;10.00;99.90;;;;;;5093807;28;20187;-76
2023/12/12 09:50:11;;;;;;;0.00;0.00;;;10.00;99.90;;;;;;5093786;28;20172;-77
2023/12/12 09:52:37;;;;;;;0.00;0.00;;;10.10;99.90;;;;;;5093322;28;20180;-75
2023/12/12 09:55:03;;;;;;;0.00;0.00;;;10.20;99.90;;;;;;5092290;28;20172;-76
2023/12/12 09:57:30;;;;;;;0.00;0.00;;;10.30;99.90;;;;;;5093269;28;20230;-76
2023/12/12 09:59:56;;;;;;;0.00;0.00;;;10.50;99.90;;;;;;5103366;28;20164;-74
2023/12/12 10:02:26;;;;;;;0.00;0.00;;;10.70;99.90;;;;;;5093356;28;20279;-75
2023/12/12 10:04:52;;;;;;;0.00;0.00;;;10.80;99.90;;;;;;5110251;28;20175;-75
2023/12/12 10:07:19;;;;;;;0.00;0.00;;;10.90;99.90;;;;;;5113635;28;20167;-76
2023/12/12 10:09:46;;;;;;;0.00;0.00;;;11.00;99.90;;;;;;5113653;28;20182;-75
2023/12/12 10:12:11;;;;;;;0.00;0.00;;;11.10;99.90;;;;;;5110552;28;20171;-75
2023/12/12 10:14:41;;;;;;;0.00;0.00;;;11.10;99.90;;;;;;5096867;28;20173;-75
2023/12/12 10:17:10;;;;;;;0.00;0.00;;;11.20;99.90;;;;;;5092623;28;20207;-75
2023/12/12 10:19:36;;;;;;;0.00;0.00;;;11.30;99.90;;;;;;5091444;28;20180;-76
2023/12/12 10:22:09;;;;;;;0.03;0.03;;;11.30;99.90;;;;;;5100433;28;20164;-75
2023/12/12 10:24:35;;;;;;;0.00;0.00;;;11.30;99.90;;;;;;5113403;28;20199;-77
2023/12/12 10:27:01;;;;;;;0.00;0.00;;;11.20;99.90;;;;;;5111473;27;20182;-77
2023/12/12 10:29:28;;;;;;;0.00;0.00;;;11.10;99.90;;;;;;5112043;28;20189;-77
2023/12/12 10:31:54;;;;;;;0.10;0.10;;;10.90;99.90;;;;;;5112777;28;20183;-76
2023/12/12 10:34:23;;;;;;;0.00;0.00;;;10.80;99.90;;;;;;5112759;28;20168;-76
2023/12/12 10:36:49;;;;;;;0.00;0.00;;;10.70;99.90;;;;;;5112587;28;20306;-75
2023/12/12 10:39:15;;;;;;;0.00;0.00;;;10.60;99.90;;;;;;5109309;28;20203;-78
2023/12/12 10:41:57;;;;;;;0.00;0.00;;;10.40;99.90;;;;;;5112189;28;20187;-77
2023/12/12 10:44:35;;;;;;;0.00;0.00;;;10.30;99.90;;;;;;5097303;28;20230;-74
2023/12/12 10:47:01;;;;;;;0.00;0.00;;;10.20;99.90;;;;;;5114164;28;20282;-69
2023/12/12 10:49:32;;;;;;;0.00;0.00;;;10.20;99.90;;;;;;5113306;28;20175;-70
2023/12/12 10:52:03;;;;;;;0.00;0.00;;;10.20;99.90;;;;;;5112581;28;20638;-72
2023/12/12 10:54:33;;;;;;;0.00;0.00;;;10.30;99.90;;;;;;5112811;28;20197;-70
2023/12/12 10:57:00;;;;;;;0.00;0.00;;;10.30;99.90;;;;;;5100024;28;20211;-74
2023/12/12 10:59:27;;;;;;;0.00;0.00;;;10.30;99.90;;;;;;5105156;28;20195;-73
2023/12/12 11:01:53;;;;;;;0.00;0.00;;;10.40;99.90;;;;;;5094770;28;20212;-72
2023/12/12 11:04:21;;;;;;;0.00;0.00;;;10.40;99.90;;;;;;5105813;28;20253;-73
2023/12/12 11:06:47;;;;;;;0.20;0.20;;;10.30;99.90;;;;;;5111715;28;20254;-72
2023/12/12 11:09:15;;;;;;;0.00;0.00;;;10.30;99.90;;;;;;5105888;28;20536;-73
2023/12/12 11:11:44;;;;;;;0.03;0.03;;;10.30;99.90;;;;;;5100769;28;20176;-72
2023/12/12 11:14:10;;;;;;;0.00;0.00;;;10.30;99.90;;;;;;5091506;28;20172;-72
2023/12/12 11:16:37;;;;;;;0.00;0.00;;;10.30;99.90;;;;;;5094262;28;20203;-72
2023/12/12 11:19:03;;;;;;;0.00;0.00;;;10.30;99.90;;;;;;5102738;28;20199;-79
2023/12/12 11:21:48;;;;;;;0.00;0.00;;;10.20;99.90;;;;;;5111186;28;20163;-75
2023/12/12 11:24:16;;;;;;;0.00;0.00;;;10.20;99.90;;;;;;5111452;28;20187;-76
2023/12/12 11:26:42;;;;;;;0.00;0.00;;;10.30;99.90;;;;;;5111650;28;20575;-77
2023/12/12 11:29:17;;;;;;;0.00;0.00;;;10.30;99.90;;;;;;5111244;28;20557;-73
2023/12/12 11:32:03;;;;;;;0.00;0.00;;;10.40;99.90;;;;;;5109810;28;20178;-77
2023/12/12 11:34:36;;;;;;;0.00;0.00;;;10.40;99.90;;;;;;5090905;28;20180;-78
2023/12/12 11:37:02;;;;;;;0.00;0.00;;;10.40;99.90;;;;;;5090791;28;20240;-75
2023/12/12 11:39:34;;;;;;;0.00;0.00;;;10.50;99.90;;;;;;5091486;28;20210;-78
2023/12/12 11:42:02;;;;;;;0.00;0.00;;;10.50;99.90;;;;;;5092977;28;20180;-73
2023/12/12 11:44:42;;;;;;;0.00;0.00;;;10.40;99.90;;;;;;5093650;28;20175;-74
2023/12/12 11:47:15;;;;;;;0.00;0.00;;;10.40;99.90;;;;;;5093777;28;20175;-78
2023/12/12 11:49:43;;;;;;;0.00;0.00;;;10.40;99.90;;;;;;5099608;28;20172;-71
2023/12/12 11:52:09;;;;;;;0.00;0.00;;;10.40;99.90;;;;;;5115318;28;20183;-72
2023/12/12 11:54:35;;;;;;;0.00;0.00;;;10.40;99.90;;;;;;5115466;28;20879;-76
2023/12/12 11:57:02;;;;;;;0.00;0.00;;;10.40;99.90;;;;;;5115475;28;20243;-72
2023/12/12 11:59:29;;;;;;;0.00;0.00;;;10.30;99.90;;;;;;5114921;28;20164;-71
2023/12/12 12:01:55;;;;;;;0.10;0.10;;;10.30;99.90;;;;;;5115213;28;20183;-72
2023/12/12 12:04:21;;;;;;;0.80;0.80;;;10.30;99.90;;;;;;5111917;28;20171;-72
2023/12/12 12:06:48;;;;;;;0.00;0.00;;;10.30;99.90;;;;;;5114687;28;20573;-59
2023/12/12 12:09:16;;;;;;;0.03;0.03;;;10.30;99.90;;;;;;5114928;27;20175;-60
2023/12/12 12:11:47;;;;;;;0.00;0.00;;;10.30;99.90;;;;;;5097394;28;20761;-59
2023/12/12 12:14:21;;;;;;;0.00;0.00;;;10.40;99.90;;;;;;5094472;28;20194;-60
2023/12/12 12:16:47;;;;;;;0.15;0.15;;;10.40;99.90;;;;;;5099844;28;20678;-59
2023/12/12 12:19:33;;;;;;;0.00;0.00;;;10.40;99.90;;;;;;5097363;28;20837;-57
2023/12/12 12:22:04;;;;;;;0.00;0.00;;;10.50;99.90;;;;;;5112163;28;20176;-57
2023/12/12 12:24:30;;;;;;;0.00;0.00;;;10.50;99.90;;;;;;5109523;28;20183;-57
2023/12/12 12:26:57;;;;;;;0.00;0.00;;;10.50;99.90;;;;;;5094108;28;20534;-57
2023/12/12 12:29:23;;;;;;;0.00;0.00;;;10.60;99.90;;;;;;5094008;28;20173;-57
2023/12/12 12:31:48;;;;;;;0.00;0.00;;;10.50;99.90;;;;;;5093148;28;20191;-57
2023/12/12 12:34:24;;;;;;;0.00;0.00;;;10.50;99.90;;;;;;5104190;28;20182;-56
2023/12/12 12:36:51;;;;;;;0.00;0.00;;;10.50;99.90;;;;;;5114216;28;20257;-58
2023/12/12 12:39:17;;;;;;;0.00;0.00;;;10.50;99.90;;;;;;5114387;28;20168;-56
2023/12/12 12:41:46;;;;;;;0.00;0.00;;;10.40;99.90;;;;;;5109311;28;20643;-60
2023/12/12 12:44:12;;;;;;;0.00;0.00;;;10.50;99.90;;;;;;5099664;28;20176;-59
2023/12/12 12:46:37;;;;;;;0.00;0.00;;;10.40;99.90;;;;;;5093567;28;20535;-60
2023/12/12 12:49:03;;;;;;;0.00;0.00;;;10.40;99.90;;;;;;5093578;28;20172;-60